Terminal Aerodrome Forecast
Issued by NWS Wilmington, OH

Home | Current Version | Previous Version | Text Only | Print | Product List | Glossary On
Versions: 1 2 3 4 5 6 7 8 9 10 11 12 13 14 15
333
FTUS41 KILN 131739
TAFDAY
TAF
KDAY 131739Z 1318/1418 30011KT P6SM SCT035
      TEMPO 1319/1322 BKN035
     FM132300 00000KT P6SM SKC
     FM140900 11003KT P6SM BKN200
     FM141600 12008KT P6SM FEW020 OVC100=

USA.gov is the U.S. government's official web portal to all federal, state and local government web resources and services.